createdAt,value
2019-06-10T00:01:11.936Z,19.60
2019-06-10T00:03:42.343Z,19.50
2019-06-10T00:06:12.099Z,19.40
2019-06-10T00:08:41.655Z,19.40
2019-06-10T00:11:11.685Z,19.30
2019-06-10T00:13:41.568Z,19.40
2019-06-10T00:16:11.561Z,19.40
2019-06-10T00:18:43.021Z,19.60
2019-06-10T00:21:12.316Z,19.50
2019-06-10T00:23:41.874Z,19.50
2019-06-10T00:26:12.651Z,19.60
2019-06-10T00:28:42.567Z,19.60
2019-06-10T00:31:12.174Z,19.60
2019-06-10T00:33:41.708Z,19.50
2019-06-10T00:36:13.519Z,19.40
2019-06-10T00:38:42.466Z,19.50
2019-06-10T00:41:14.081Z,19.60
2019-06-10T00:43:43.227Z,19.70
2019-06-10T00:46:13.355Z,19.70
2019-06-10T00:48:42.944Z,19.80
2019-06-10T00:51:13.221Z,19.80
2019-06-10T00:53:42.919Z,19.60
2019-06-10T00:56:14.320Z,19.50
2019-06-10T00:58:44.012Z,19.40
2019-06-10T01:01:14.686Z,19.40
2019-06-10T01:03:44.382Z,19.40
2019-06-10T01:06:15.086Z,19.30
2019-06-10T01:08:44.799Z,19.30
2019-06-10T01:11:21.534Z,19.40
2019-06-10T01:13:45.543Z,19.40
2019-06-10T01:16:15.601Z,19.40
2019-06-10T01:18:45.356Z,19.60
2019-06-10T01:21:15.505Z,19.60
2019-06-10T01:23:45.492Z,19.50
2019-06-10T01:26:16.414Z,19.50
2019-06-10T01:28:46.550Z,19.60
2019-06-10T01:31:20.714Z,19.70
2019-06-10T01:33:47.291Z,19.70
2019-06-10T01:36:18.113Z,19.70
2019-06-10T01:38:48.285Z,19.80
2019-06-10T01:41:17.769Z,19.80
2019-06-10T01:43:47.364Z,19.80
2019-06-10T01:46:17.547Z,19.80
2019-06-10T01:48:48.500Z,19.80
2019-06-10T01:51:21.567Z,19.80
2019-06-10T01:53:51.559Z,19.80
2019-06-10T01:56:21.528Z,19.70
2019-06-10T01:58:51.657Z,19.60
2019-06-10T02:01:27.552Z,19.50
2019-06-10T02:22:03.420Z,18.80
2019-06-10T02:24:32.992Z,18.80
2019-06-10T02:27:02.521Z,19.00
2019-06-10T02:29:32.676Z,19.00
2019-06-10T02:32:04.789Z,19.10
2019-06-10T02:34:39.222Z,19.20
2019-06-10T02:37:05.150Z,19.40
2019-06-10T02:39:38.820Z,19.40
2019-06-10T02:42:13.689Z,19.30
2019-06-10T02:44:44.533Z,19.30
2019-06-10T02:47:18.240Z,19.20
2019-06-10T02:49:57.007Z,19.10
2019-06-10T02:52:22.877Z,19.00
2019-06-10T02:54:53.531Z,19.00
2019-06-10T02:57:29.569Z,19.00
2019-06-10T02:59:54.402Z,18.90
2019-06-10T03:02:30.061Z,18.80
2019-06-10T03:04:55.709Z,18.90
2019-06-10T03:07:28.741Z,18.80
2019-06-10T03:09:56.547Z,18.80
2019-06-10T03:12:26.185Z,18.80
2019-06-10T03:14:55.666Z,18.80
2019-06-10T03:17:26.539Z,18.80
2019-06-10T03:19:56.504Z,18.80
2019-06-10T03:22:26.181Z,18.70
2019-06-10T03:24:55.759Z,18.60
2019-06-10T03:27:26.608Z,18.40
2019-06-10T03:29:57.255Z,18.30
2019-06-10T03:32:34.273Z,18.00
2019-06-10T03:34:58.048Z,17.50
2019-06-10T03:37:27.931Z,17.00
2019-06-10T03:39:57.384Z,16.80
2019-06-10T03:42:28.163Z,16.70
2019-06-10T03:44:57.727Z,16.60
2019-06-10T03:47:28.767Z,16.60
2019-06-10T03:49:58.495Z,16.80
2019-06-10T03:52:28.528Z,17.00
2019-06-10T03:54:58.080Z,17.10
2019-06-10T03:57:28.694Z,17.10
2019-06-10T03:59:58.656Z,17.20
2019-06-10T04:02:32.551Z,17.30
2019-06-10T04:05:02.985Z,17.30
2019-06-10T04:07:34.234Z,17.50
2019-06-10T04:10:04.019Z,17.50
2019-06-10T04:12:33.578Z,17.50
2019-06-10T04:15:04.453Z,17.60
2019-06-10T04:17:34.046Z,17.60
2019-06-10T04:20:11.626Z,17.60
2019-06-10T04:22:36.987Z,17.60
2019-06-10T04:25:06.651Z,17.60
2019-06-10T04:27:36.279Z,17.60
2019-06-10T04:30:06.537Z,17.50
2019-06-10T04:32:36.258Z,17.50
2019-06-10T04:35:07.503Z,17.60
2019-06-10T04:37:42.621Z,17.70
2019-06-10T04:40:13.394Z,17.80
2019-06-10T04:42:44.306Z,17.90
2019-06-10T04:45:13.887Z,18.00
2019-06-10T04:47:43.514Z,17.90
2019-06-10T04:50:25.019Z,17.90
2019-06-10T04:52:44.615Z,18.10
2019-06-10T04:55:14.301Z,18.10
2019-06-10T04:57:44.106Z,17.90
2019-06-10T05:00:14.837Z,17.70
2019-06-10T05:02:44.401Z,17.50
2019-06-10T05:05:14.127Z,17.50
2019-06-10T05:07:43.611Z,17.60
2019-06-10T05:10:13.271Z,17.80
2019-06-10T05:12:43.272Z,17.90
2019-06-10T05:15:13.478Z,18.00
2019-06-10T05:17:43.738Z,18.10
2019-06-10T05:20:13.759Z,18.20
2019-06-10T05:22:43.626Z,18.40
2019-06-10T05:25:13.260Z,18.50
2019-06-10T05:27:43.348Z,18.30
2019-06-10T05:30:12.994Z,18.20
2019-06-10T05:32:43.229Z,18.20
2019-06-10T05:35:12.963Z,18.30
2019-06-10T05:37:42.623Z,18.40
2019-06-10T05:40:12.830Z,18.50
2019-06-10T05:42:42.708Z,18.40
2019-06-10T05:45:12.436Z,18.40
2019-06-10T05:47:42.702Z,18.30
2019-06-10T05:50:13.007Z,18.10
2019-06-10T05:52:42.838Z,18.10
2019-06-10T05:55:12.330Z,18.10
2019-06-10T05:57:42.870Z,18.20
2019-06-10T06:00:14.932Z,18.20
2019-06-10T06:02:44.460Z,18.20
2019-06-10T06:05:14.377Z,18.10
2019-06-10T06:07:43.844Z,18.00
2019-06-10T06:10:13.636Z,18.10
2019-06-10T06:12:43.396Z,18.10
2019-06-10T06:15:13.698Z,18.10
2019-06-10T06:17:43.383Z,18.20
2019-06-10T06:20:13.990Z,18.10
2019-06-10T06:22:43.520Z,18.10
2019-06-10T06:25:15.280Z,18.30
2019-06-10T06:27:44.393Z,18.30
2019-06-10T06:30:18.473Z,18.40
2019-06-10T06:32:46.323Z,18.40
2019-06-10T06:35:15.945Z,18.50
2019-06-10T06:37:45.576Z,18.50
2019-06-10T06:40:15.845Z,18.60
2019-06-10T06:42:45.417Z,18.70
2019-06-10T06:45:15.204Z,18.70
2019-06-10T06:47:44.724Z,18.70
2019-06-10T06:50:14.347Z,18.70
2019-06-10T06:53:15.388Z,18.80
2019-06-10T06:55:15.215Z,18.70
2019-06-10T06:57:44.767Z,18.70
2019-06-10T07:00:40.819Z,18.80
2019-06-10T07:02:46.285Z,18.80
2019-06-10T07:05:15.803Z,18.90
2019-06-10T07:07:45.419Z,19.00
2019-06-10T07:10:14.986Z,19.00
2019-06-10T07:12:45.678Z,18.90
2019-06-10T07:15:16.276Z,18.90
2019-06-10T07:17:46.174Z,19.00
2019-06-10T07:20:15.960Z,19.10
2019-06-10T07:22:46.653Z,19.30
2019-06-10T07:25:16.419Z,19.40
2019-06-10T07:27:47.037Z,19.50
2019-06-10T07:30:17.762Z,19.60
2019-06-10T07:32:47.564Z,19.80
2019-06-10T07:35:17.356Z,19.90
2019-06-10T07:37:47.039Z,20.20
2019-06-10T07:40:18.771Z,20.10
2019-06-10T07:42:48.314Z,20.40
2019-06-10T07:45:18.159Z,20.40
2019-06-10T07:47:47.650Z,20.10
2019-06-10T07:50:17.759Z,20.40
2019-06-10T07:52:47.244Z,20.40
2019-06-10T07:55:18.220Z,20.40
2019-06-10T07:57:47.721Z,20.60
2019-06-10T08:00:19.340Z,20.80
2019-06-10T08:02:48.896Z,20.50
2019-06-10T08:05:18.388Z,20.50
2019-06-10T08:07:49.027Z,20.70
2019-06-10T08:10:18.695Z,21.00
2019-06-10T08:12:48.450Z,21.20
2019-06-10T08:15:17.938Z,21.50
2019-06-10T08:17:49.143Z,21.80
2019-06-10T08:20:39.149Z,22.30
2019-06-10T08:23:08.704Z,22.50
2019-06-10T08:25:38.523Z,23.00
2019-06-10T08:28:08.437Z,23.40
2019-06-10T08:30:38.250Z,23.90
2019-06-10T08:33:07.964Z,24.70
2019-06-10T08:35:44.517Z,25.70
2019-06-10T08:38:08.790Z,27.00
2019-06-10T08:40:38.413Z,28.60
2019-06-10T08:43:08.713Z,30.10
2019-06-10T08:45:38.893Z,31.10
2019-06-10T08:48:08.682Z,31.50
2019-06-10T08:50:39.334Z,31.40
2019-06-10T08:53:14.675Z,31.00
2019-06-10T08:55:42.838Z,30.40
2019-06-10T08:58:12.901Z,28.90
2019-06-10T09:00:45.104Z,28.60
2019-06-10T09:03:14.219Z,28.40
2019-06-10T09:05:46.513Z,28.50
2019-06-10T09:08:14.871Z,29.10
2019-06-10T09:10:47.948Z,29.50
2019-06-10T09:13:15.590Z,29.60
2019-06-10T09:16:00.571Z,29.50
2019-06-10T09:18:19.961Z,29.50
2019-06-10T09:20:52.437Z,29.30
2019-06-10T09:23:22.410Z,29.30
2019-06-10T09:25:54.492Z,29.40
2019-06-10T09:28:23.435Z,29.50
2019-06-10T09:30:58.321Z,29.50
2019-06-10T09:33:23.752Z,29.60
2019-06-10T09:35:55.042Z,30.10
2019-06-10T09:38:25.149Z,31.30
2019-06-10T09:41:01.360Z,32.60
2019-06-10T09:43:26.149Z,33.60
2019-06-10T09:45:56.644Z,34.50
2019-06-10T09:48:27.064Z,35.40
2019-06-10T09:50:58.586Z,36.00
2019-06-10T09:53:41.244Z,36.60
2019-06-10T09:55:59.035Z,36.60
2019-06-10T09:58:28.816Z,36.70
2019-06-10T10:00:59.007Z,36.70
2019-06-10T10:03:28.857Z,36.80
2019-06-10T10:06:09.916Z,36.70
2019-06-10T10:08:29.502Z,37.10
2019-06-10T10:10:59.365Z,37.20
2019-06-10T10:13:29.210Z,37.00
2019-06-10T10:15:58.784Z,36.90
2019-06-10T10:18:28.431Z,36.90
2019-06-10T10:21:00.265Z,36.90
2019-06-10T10:23:42.508Z,36.80
2019-06-10T10:26:03.182Z,36.70
2019-06-10T10:28:33.425Z,36.50
2019-06-10T10:31:04.400Z,36.70
2019-06-10T10:33:34.265Z,36.80
2019-06-10T10:36:03.775Z,36.60
2019-06-10T10:38:34.838Z,35.30
2019-06-10T10:41:04.971Z,35.30
2019-06-10T10:43:37.853Z,35.00
2019-06-10T10:46:06.115Z,34.60
2019-06-10T10:48:36.018Z,34.00
2019-06-10T10:51:05.569Z,33.60
2019-06-10T10:53:35.356Z,33.40
2019-06-10T10:56:05.077Z,33.00
2019-06-10T10:58:34.566Z,32.60
2019-06-10T11:01:04.886Z,32.30
2019-06-10T11:03:34.617Z,32.10
2019-06-10T11:06:05.051Z,31.80
2019-06-10T11:08:34.952Z,31.40
2019-06-10T11:11:05.899Z,31.50
2019-06-10T11:13:38.013Z,31.40
2019-06-10T11:16:07.539Z,31.40
2019-06-10T11:18:37.062Z,31.30
2019-06-10T11:21:06.697Z,31.20
2019-06-10T11:23:36.139Z,30.80
2019-06-10T11:26:05.710Z,30.10
2019-06-10T11:28:35.176Z,29.60
2019-06-10T11:31:04.660Z,29.40
2019-06-10T11:33:34.795Z,29.30
2019-06-10T11:36:04.432Z,29.30
2019-06-10T11:38:34.159Z,29.10
2019-06-10T11:41:03.748Z,28.90
2019-06-10T11:43:33.445Z,28.70
2019-06-10T11:46:07.108Z,28.40
2019-06-10T11:48:34.097Z,28.10
2019-06-10T11:51:04.740Z,27.80
2019-06-10T11:53:34.803Z,27.70
2019-06-10T11:56:04.763Z,27.60
2019-06-10T11:58:34.300Z,27.40
2019-06-10T12:01:04.298Z,27.20
2019-06-10T12:03:33.933Z,27.10
2019-06-10T12:06:05.306Z,27.10
2019-06-10T12:08:34.736Z,26.80
2019-06-10T12:11:05.310Z,26.80
2019-06-10T12:13:34.984Z,26.40
2019-06-10T12:17:05.225Z,25.90
2019-06-10T12:18:36.192Z,26.00
2019-06-10T12:21:05.743Z,25.80
2019-06-10T12:23:35.248Z,25.90
2019-06-10T12:26:05.394Z,26.00
2019-06-10T12:28:35.224Z,26.00
2019-06-10T12:31:07.280Z,26.10
2019-06-10T12:33:35.947Z,26.20
2019-06-10T12:36:07.278Z,26.20
2019-06-10T12:38:37.468Z,26.00
2019-06-10T12:41:10.154Z,26.00
2019-06-10T12:43:38.479Z,26.10
2019-06-10T12:46:07.971Z,26.00
2019-06-10T12:48:37.564Z,26.00
2019-06-10T12:51:09.598Z,26.00
2019-06-10T12:53:38.299Z,26.00
2019-06-10T12:56:11.348Z,26.10
2019-06-10T12:58:39.337Z,26.20
2019-06-10T13:01:08.913Z,25.90
2019-06-10T13:03:38.475Z,25.80
2019-06-10T13:06:09.798Z,25.90
2019-06-10T13:08:42.639Z,26.00
2019-06-10T13:11:13.225Z,26.10
2019-06-10T13:13:42.693Z,26.30
2019-06-10T13:16:14.165Z,26.40
2019-06-10T13:18:43.381Z,26.50
2019-06-10T13:21:17.171Z,26.50
2019-06-10T13:23:44.356Z,26.40
2019-06-10T13:26:16.735Z,26.50
2019-06-10T13:28:45.052Z,26.40
2019-06-10T13:31:14.615Z,26.30
2019-06-10T13:33:44.203Z,26.30
2019-06-10T13:36:13.763Z,26.30
2019-06-10T13:38:43.411Z,26.40
2019-06-10T13:41:12.988Z,26.40
2019-06-10T13:43:43.495Z,26.50
2019-06-10T13:46:13.203Z,26.60
2019-06-10T13:48:43.186Z,26.50
2019-06-10T13:51:15.471Z,26.50
2019-06-10T13:53:46.351Z,26.60
2019-06-10T13:56:38.162Z,26.50
2019-06-10T13:58:46.635Z,26.50
2019-06-10T14:01:21.396Z,26.50
2019-06-10T14:03:47.350Z,26.60
2019-06-10T14:06:37.117Z,26.60
2019-06-10T14:08:48.416Z,26.60
2019-06-10T14:11:19.172Z,26.60
2019-06-10T14:13:49.165Z,26.40
2019-06-10T14:16:19.102Z,26.50
2019-06-10T14:18:48.565Z,26.60
2019-06-10T14:21:18.798Z,26.50
2019-06-10T14:23:48.259Z,26.50
2019-06-10T14:26:25.606Z,26.60
2019-06-10T14:28:49.067Z,26.70
2019-06-10T14:31:38.282Z,26.60
2019-06-10T14:33:50.088Z,26.50
2019-06-10T14:36:22.041Z,26.50
2019-06-10T14:38:50.956Z,26.50
2019-06-10T14:41:25.650Z,26.70
2019-06-10T14:43:53.145Z,26.70
2019-06-10T14:46:23.165Z,26.50
2019-06-10T14:48:53.256Z,26.50
2019-06-10T14:51:23.077Z,26.50
2019-06-10T14:53:52.999Z,26.50
2019-06-10T14:56:23.517Z,26.60
2019-06-10T14:58:53.167Z,26.60
2019-06-10T15:01:25.434Z,26.70
2019-06-10T15:03:53.877Z,26.60
2019-06-10T15:06:23.398Z,26.40
2019-06-10T15:08:53.354Z,26.30
2019-06-10T15:11:25.390Z,26.20
2019-06-10T15:13:54.183Z,26.30
2019-06-10T15:16:23.966Z,26.30
2019-06-10T15:18:53.491Z,26.30
2019-06-10T15:21:23.453Z,26.20
2019-06-10T15:23:53.207Z,26.20
2019-06-10T15:26:22.731Z,26.40
2019-06-10T15:28:52.634Z,26.40
2019-06-10T15:31:23.302Z,26.40
2019-06-10T15:33:52.808Z,26.40
2019-06-10T15:36:22.343Z,26.30
2019-06-10T15:38:52.510Z,26.20
2019-06-10T15:41:24.715Z,26.00
2019-06-10T15:43:53.977Z,26.00
2019-06-10T15:46:23.413Z,26.00
2019-06-10T15:48:54.096Z,25.90
2019-06-10T15:51:26.060Z,25.50
2019-06-10T15:53:56.839Z,24.60
2019-06-10T15:56:37.595Z,23.60
2019-06-10T15:58:57.616Z,22.40
2019-06-10T16:01:28.284Z,21.40
2019-06-10T16:03:57.812Z,20.60
2019-06-10T16:06:28.391Z,20.00
2019-06-10T16:08:59.030Z,19.70
2019-06-10T16:11:30.063Z,19.40
2019-06-10T16:13:59.657Z,19.20
2019-06-10T16:16:29.182Z,19.10
2019-06-10T16:18:58.707Z,19.00
2019-06-10T16:21:28.704Z,19.10
2019-06-10T16:23:58.264Z,19.10
2019-06-10T16:26:28.085Z,19.10
2019-06-10T16:28:58.003Z,19.00
2019-06-10T16:31:27.744Z,18.90
2019-06-10T16:33:57.405Z,19.10
2019-06-10T16:36:28.060Z,19.10
2019-06-10T16:38:57.823Z,19.20
2019-06-10T16:41:28.200Z,19.20
2019-06-10T16:43:57.940Z,19.10
2019-06-10T16:46:29.230Z,18.90
2019-06-10T16:49:03.100Z,18.90
2019-06-10T16:51:31.876Z,19.10
2019-06-10T16:54:02.401Z,19.20
2019-06-10T16:56:33.539Z,19.10
2019-06-10T16:59:03.197Z,19.20
2019-06-10T17:01:33.185Z,19.20
2019-06-10T17:04:02.934Z,19.40
2019-06-10T17:06:32.855Z,19.40
2019-06-10T17:09:02.872Z,19.40
2019-06-10T17:11:32.439Z,19.50
2019-06-10T17:14:03.079Z,19.60
2019-06-10T17:16:32.758Z,19.60
2019-06-10T17:19:02.553Z,19.60
2019-06-10T17:21:34.631Z,19.60
2019-06-10T17:24:04.061Z,19.70
2019-06-10T17:26:37.934Z,19.70
2019-06-10T17:29:04.795Z,19.80
2019-06-10T17:31:35.317Z,19.90
2019-06-10T17:34:04.866Z,19.90
2019-06-10T17:36:35.451Z,19.80
2019-06-10T17:39:08.078Z,19.90
2019-06-10T17:41:37.935Z,19.80
2019-06-10T17:44:07.485Z,19.80
2019-06-10T17:46:37.363Z,19.90
2019-06-10T17:49:06.981Z,19.90
2019-06-10T17:51:36.815Z,20.00
2019-06-10T17:54:06.350Z,19.90
2019-06-10T17:56:36.526Z,20.00
2019-06-10T17:59:06.774Z,20.00
2019-06-10T18:01:36.433Z,20.00
2019-06-10T18:04:05.963Z,20.00
2019-06-10T18:06:36.558Z,20.00
2019-06-10T18:09:07.555Z,19.90
2019-06-10T18:11:37.372Z,19.90
2019-06-10T18:14:07.050Z,19.90
2019-06-10T18:16:36.855Z,19.90
2019-06-10T18:19:06.531Z,19.90
2019-06-10T18:21:36.559Z,19.80
2019-06-10T18:24:08.446Z,19.70
2019-06-10T18:26:38.042Z,19.80
2019-06-10T18:29:09.213Z,19.70
2019-06-10T18:31:39.401Z,19.70
2019-06-10T18:34:09.271Z,19.70
2019-06-10T18:36:38.760Z,19.70
2019-06-10T18:39:08.811Z,19.60
2019-06-10T18:41:39.685Z,19.60
2019-06-10T18:44:19.756Z,19.60
2019-06-10T18:46:43.049Z,19.50
2019-06-10T18:49:13.348Z,19.50
2019-06-10T18:51:43.549Z,19.50
2019-06-10T18:54:13.323Z,19.40
2019-06-10T18:56:43.105Z,19.40
2019-06-10T18:59:19.774Z,19.50
2019-06-10T19:01:43.987Z,19.40
2019-06-10T19:04:13.494Z,19.40
2019-06-10T19:06:43.277Z,19.40
2019-06-10T19:09:13.064Z,19.30
2019-06-10T19:11:43.306Z,19.20
2019-06-10T19:14:13.070Z,19.30
2019-06-10T19:16:43.077Z,19.20
2019-06-10T19:19:12.806Z,19.20
2019-06-10T19:21:44.044Z,19.20
2019-06-10T19:24:14.188Z,19.30
2019-06-10T19:26:45.170Z,19.20
2019-06-10T19:29:29.657Z,19.20
2019-06-10T19:31:46.486Z,19.20
2019-06-10T19:34:16.285Z,19.20
2019-06-10T19:36:45.851Z,19.20
2019-06-10T19:39:15.529Z,19.20
2019-06-10T19:41:47.268Z,19.10
2019-06-10T19:44:16.559Z,19.00
2019-06-10T19:46:46.087Z,19.10
2019-06-10T19:49:15.590Z,19.20
2019-06-10T19:51:46.890Z,19.10
2019-06-10T19:54:16.279Z,19.20
2019-06-10T19:56:45.825Z,19.20
2019-06-10T19:59:15.341Z,19.20
2019-06-10T20:04:22.503Z,19.10
2019-06-10T20:06:53.722Z,19.10
2019-06-10T20:09:22.992Z,19.10
2019-06-10T20:11:52.836Z,19.00
2019-06-10T20:14:22.295Z,19.00
2019-06-10T20:16:52.715Z,19.00
2019-06-10T20:19:22.611Z,19.00
2019-06-10T20:21:53.445Z,18.90
2019-06-10T20:24:22.938Z,18.90
2019-06-10T20:26:52.998Z,18.80
2019-06-10T20:29:22.658Z,18.80
2019-06-10T20:31:52.469Z,18.70
2019-06-10T20:34:24.413Z,18.70
2019-06-10T20:36:53.599Z,18.70
2019-06-10T20:39:24.884Z,18.70
2019-06-10T20:41:55.803Z,18.60
2019-06-10T20:44:28.579Z,18.60
2019-06-10T20:46:58.170Z,18.60
2019-06-10T20:49:27.895Z,18.70
2019-06-10T20:52:09.882Z,18.60
2019-06-10T20:54:28.783Z,18.60
2019-06-10T20:56:58.292Z,18.60
2019-06-10T20:59:27.968Z,18.60
2019-06-10T21:01:57.457Z,18.60
2019-06-10T21:04:27.109Z,18.50
2019-06-10T21:06:57.280Z,18.50
2019-06-10T21:09:28.004Z,18.40
2019-06-10T21:11:57.506Z,18.40
2019-06-10T21:14:27.340Z,18.50
2019-06-10T21:16:56.903Z,18.40
2019-06-10T21:19:26.599Z,18.40
2019-06-10T21:21:56.089Z,18.40
2019-06-10T21:24:25.832Z,18.40
2019-06-10T21:26:55.357Z,18.30
2019-06-10T21:29:25.214Z,18.30
2019-06-10T21:31:55.286Z,18.40
2019-06-10T21:34:24.854Z,18.20
2019-06-10T21:36:54.535Z,18.10
2019-06-10T21:39:24.777Z,18.10
2019-06-10T21:41:54.719Z,18.00
2019-06-10T21:44:24.351Z,18.10
2019-06-10T21:46:53.877Z,18.00
2019-06-10T21:49:23.998Z,18.00
2019-06-10T21:51:56.869Z,18.00
2019-06-10T21:54:26.909Z,18.00
2019-06-10T21:56:55.998Z,18.00
2019-06-10T21:59:25.749Z,18.00
2019-06-10T22:01:55.819Z,18.00
2019-06-10T22:04:25.470Z,17.90
2019-06-10T22:06:56.208Z,17.90
2019-06-10T22:09:25.893Z,17.90
2019-06-10T22:11:55.910Z,17.90
2019-06-10T22:14:28.332Z,17.90
2019-06-10T22:16:57.817Z,17.90
2019-06-10T22:19:27.420Z,17.90
2019-06-10T22:21:57.020Z,17.90
2019-06-10T22:24:28.581Z,17.90
2019-06-10T22:26:58.390Z,17.80
2019-06-10T22:29:27.987Z,17.80
2019-06-10T22:31:57.486Z,17.80
2019-06-10T22:34:27.625Z,17.80
2019-06-10T22:36:57.700Z,17.80
2019-06-10T22:39:27.615Z,17.80
2019-06-10T22:41:57.383Z,17.80
2019-06-10T22:44:26.918Z,17.80
2019-06-10T22:46:57.231Z,17.80
2019-06-10T22:49:27.014Z,17.80
2019-06-10T22:51:58.423Z,17.80
2019-06-10T22:54:27.847Z,17.80
2019-06-10T22:56:58.442Z,17.80
2019-06-10T22:59:28.295Z,17.80
2019-06-10T23:01:58.743Z,17.80
2019-06-10T23:04:29.103Z,17.80
2019-06-10T23:06:59.887Z,17.80
2019-06-10T23:09:29.886Z,17.80
2019-06-10T23:11:59.391Z,17.80
2019-06-10T23:14:29.363Z,17.80
2019-06-10T23:17:00.138Z,17.80
2019-06-10T23:19:33.095Z,17.90
2019-06-10T23:22:03.008Z,17.90
2019-06-10T23:24:32.609Z,17.90
2019-06-10T23:27:03.215Z,17.90
2019-06-10T23:29:33.120Z,17.90
2019-06-10T23:32:07.246Z,17.90
2019-06-10T23:34:37.181Z,17.90
2019-06-10T23:37:06.668Z,17.90
2019-06-10T23:39:36.296Z,17.90
2019-06-10T23:42:06.120Z,17.90
2019-06-10T23:44:35.738Z,17.90
2019-06-10T23:47:05.247Z,17.90
2019-06-10T23:49:34.878Z,17.90
2019-06-10T23:52:05.478Z,17.90
2019-06-10T23:54:35.293Z,17.90
2019-06-10T23:57:05.953Z,18.00
2019-06-10T23:59:36.275Z,17.90
